Pagrindinis puslapis
METAR-TAF:

METAR-TAF

Oro uostai :

Qurayyat, Saudo Arabija

platuma: 31-24N, ilguma: 037-16E, Aukštis: 509 m

Dabartinis oras

Ataskaita buvo paskelbta 53 minutes, ne 20:00 UTC
Vėjas 4 kt iš Vakarų/Šiaurės Vakarų
Temperatūra 11°C
Drėgmė 87%
Slėgis 1015 hPa
Matomumas 10 km arba daugiau
nėra debesų žemiau 1500 m ir nėra kamuolinių lietaus debesų

METAR: OEGT 102000Z 30004KT CAVOK 11/09 Q1015 NOSIG

Laikas: 23:53 (20:53 UTC)

Prognozė

Ataskaita buvo paskelbta 9 valandos ir 53 minutes, ne 11:00 UTC
Prognozė galioja nuo 10 metu 12 UTC su 11 metu 18 UTC
Vėjas 14 kt iš Vakarų
Matomumas 10 km arba daugiau
Išsisklaidę debesys ne aukštis 4000 ft
Laikinai
nuo 10 metu 12 UTC su 10 metu 18 UTC
Mažai debesys ne aukštis 3500 ft, Liūtiniai kamuoliniai debesys.
Tapsmas
nuo 10 metu 18 UTC su 10 metu 20 UTC
Vėjas 3 kt nuo kintamojo kryptimis

TAF: OEGT 101100Z 1012/1118 28014KT 9999 SCT040 TEMPO 1012/1018 FEW035CB BECMG 1018/1020 VRB03KT

Orai ataskaitas ir orų prognozės (METAR, TAF).

turimą stotys yra geltonos ir raudonos taškus žemėlapyje.

Perkelti pele per norėdami pamatyti stoties vardą.

Tada spustelėkite, norėdami matyti oro stebėjimo ir prognozės.

Norėdami pakeisti žemėlapį: spustelėkite ant žalios mygtukų su juodo kryžiaus žemyn,; žalią mygtuką su brūkšneliu, jei norite nutolinti; arba žalių rodyklių gretimoms žemėlapius.


METAR-TAF: